sensor_id;sensor_type;location;lat;lon;timestamp;P1;durP1;ratioP1;P2;durP2;ratioP2
62149;SDS011;48134;53.586;10.610;2023-05-10T00:00:42;6.00;;;2.90;;
62149;SDS011;48134;53.586;10.610;2023-05-10T00:03:09;5.25;;;2.47;;
62149;SDS011;48134;53.586;10.610;2023-05-10T00:05:37;4.13;;;2.40;;
62149;SDS011;48134;53.586;10.610;2023-05-10T00:08:05;5.55;;;2.58;;
62149;SDS011;48134;53.586;10.610;2023-05-10T00:10:38;10.15;;;2.83;;
62149;SDS011;48134;53.586;10.610;2023-05-10T00:13:11;8.52;;;2.58;;
62149;SDS011;48134;53.586;10.610;2023-05-10T00:15:45;5.60;;;2.63;;
62149;SDS011;48134;53.586;10.610;2023-05-10T00:18:18;8.02;;;2.35;;
62149;SDS011;48134;53.586;10.610;2023-05-10T00:20:51;5.93;;;2.90;;
62149;SDS011;48134;53.586;10.610;2023-05-10T00:23:24;6.28;;;3.00;;
62149;SDS011;48134;53.586;10.610;2023-05-10T00:25:57;5.28;;;2.35;;
62149;SDS011;48134;53.586;10.610;2023-05-10T00:28:25;5.80;;;2.80;;
62149;SDS011;48134;53.586;10.610;2023-05-10T00:31:00;9.48;;;2.92;;
62149;SDS011;48134;53.586;10.610;2023-05-10T00:33:33;5.32;;;2.20;;
62149;SDS011;48134;53.586;10.610;2023-05-10T00:36:06;9.85;;;2.97;;
62149;SDS011;48134;53.586;10.610;2023-05-10T00:38:40;10.13;;;2.53;;
62149;SDS011;48134;53.586;10.610;2023-05-10T00:41:13;5.53;;;2.60;;
62149;SDS011;48134;53.586;10.610;2023-05-10T00:43:47;5.88;;;2.67;;
62149;SDS011;48134;53.586;10.610;2023-05-10T00:46:16;7.70;;;2.85;;
62149;SDS011;48134;53.586;10.610;2023-05-10T00:48:44;5.05;;;2.60;;
62149;SDS011;48134;53.586;10.610;2023-05-10T00:51:17;6.97;;;2.80;;
62149;SDS011;48134;53.586;10.610;2023-05-10T00:53:45;5.55;;;2.45;;
62149;SDS011;48134;53.586;10.610;2023-05-10T00:56:13;6.90;;;2.85;;
62149;SDS011;48134;53.586;10.610;2023-05-10T00:58:42;10.10;;;2.38;;
62149;SDS011;48134;53.586;10.610;2023-05-10T01:01:14;5.10;;;2.33;;
62149;SDS011;48134;53.586;10.610;2023-05-10T01:03:43;7.38;;;3.10;;
62149;SDS011;48134;53.586;10.610;2023-05-10T01:06:16;7.22;;;3.10;;
62149;SDS011;48134;53.586;10.610;2023-05-10T01:08:50;8.50;;;2.83;;
62149;SDS011;48134;53.586;10.610;2023-05-10T01:11:23;6.97;;;3.05;;
62149;SDS011;48134;53.586;10.610;2023-05-10T01:13:56;7.70;;;2.97;;
62149;SDS011;48134;53.586;10.610;2023-05-10T01:16:31;6.65;;;2.60;;
62149;SDS011;48134;53.586;10.610;2023-05-10T01:19:06;5.30;;;2.60;;
62149;SDS011;48134;53.586;10.610;2023-05-10T01:21:38;4.80;;;2.67;;
62149;SDS011;48134;53.586;10.610;2023-05-10T05:52:34;6.95;;;3.30;;
62149;SDS011;48134;53.586;10.610;2023-05-10T05:55:04;8.05;;;3.40;;
62149;SDS011;48134;53.586;10.610;2023-05-10T05:57:37;6.78;;;3.40;;
62149;SDS011;48134;53.586;10.610;2023-05-10T06:00:05;11.18;;;3.67;;
62149;SDS011;48134;53.586;10.610;2023-05-10T06:02:39;7.93;;;3.70;;
62149;SDS011;48134;53.586;10.610;2023-05-10T06:05:07;7.15;;;3.33;;
62149;SDS011;48134;53.586;10.610;2023-05-10T06:07:42;7.25;;;3.80;;
62149;SDS011;48134;53.586;10.610;2023-05-10T06:10:09;7.15;;;3.78;;
62149;SDS011;48134;53.586;10.610;2023-05-10T06:12:42;7.47;;;3.47;;
62149;SDS011;48134;53.586;10.610;2023-05-10T06:15:10;8.43;;;3.58;;
62149;SDS011;48134;53.586;10.610;2023-05-10T06:17:38;7.40;;;3.60;;
62149;SDS011;48134;53.586;10.610;2023-05-10T06:20:07;8.27;;;3.75;;
62149;SDS011;48134;53.586;10.610;2023-05-10T06:22:41;6.88;;;3.63;;
62149;SDS011;48134;53.586;10.610;2023-05-10T06:25:14;7.88;;;3.58;;
62149;SDS011;48134;53.586;10.610;2023-05-10T06:27:44;7.80;;;3.78;;
62149;SDS011;48134;53.586;10.610;2023-05-10T06:30:12;8.25;;;4.25;;
62149;SDS011;48134;53.586;10.610;2023-05-10T06:32:41;9.00;;;3.80;;
62149;SDS011;48134;53.586;10.610;2023-05-10T06:35:10;9.27;;;3.90;;
62149;SDS011;48134;53.586;10.610;2023-05-10T06:37:38;8.07;;;3.70;;
62149;SDS011;48134;53.586;10.610;2023-05-10T06:40:08;7.22;;;3.50;;
62149;SDS011;48134;53.586;10.610;2023-05-10T06:42:41;5.97;;;3.30;;
62149;SDS011;48134;53.586;10.610;2023-05-10T06:45:14;8.32;;;3.83;;
62149;SDS011;48134;53.586;10.610;2023-05-10T06:47:47;6.90;;;3.50;;
62149;SDS011;48134;53.586;10.610;2023-05-10T06:50:15;7.88;;;3.78;;
62149;SDS011;48134;53.586;10.610;2023-05-10T06:52:43;7.70;;;3.25;;
62149;SDS011;48134;53.586;10.610;2023-05-10T06:55:12;8.27;;;3.80;;
62149;SDS011;48134;53.586;10.610;2023-05-10T06:57:45;5.68;;;3.45;;
62149;SDS011;48134;53.586;10.610;2023-05-10T07:00:14;6.57;;;3.40;;
62149;SDS011;48134;53.586;10.610;2023-05-10T07:02:47;5.25;;;3.00;;
62149;SDS011;48134;53.586;10.610;2023-05-10T07:05:20;7.28;;;3.60;;
62149;SDS011;48134;53.586;10.610;2023-05-10T07:07:48;7.75;;;3.63;;
62149;SDS011;48134;53.586;10.610;2023-05-10T07:10:23;5.85;;;3.22;;
62149;SDS011;48134;53.586;10.610;2023-05-10T07:12:55;7.45;;;3.63;;
62149;SDS011;48134;53.586;10.610;2023-05-10T07:15:23;6.65;;;3.50;;
62149;SDS011;48134;53.586;10.610;2023-05-10T07:17:51;5.35;;;3.03;;
62149;SDS011;48134;53.586;10.610;2023-05-10T07:20:24;6.95;;;3.45;;
62149;SDS011;48134;53.586;10.610;2023-05-10T07:22:56;11.57;;;3.80;;
62149;SDS011;48134;53.586;10.610;2023-05-10T07:25:25;6.57;;;3.55;;
62149;SDS011;48134;53.586;10.610;2023-05-10T07:30:26;8.73;;;3.45;;
62149;SDS011;48134;53.586;10.610;2023-05-10T07:32:53;6.03;;;3.53;;
62149;SDS011;48134;53.586;10.610;2023-05-10T07:35:21;11.00;;;3.78;;
62149;SDS011;48134;53.586;10.610;2023-05-10T07:37:49;6.88;;;3.35;;
62149;SDS011;48134;53.586;10.610;2023-05-10T07:40:17;6.70;;;3.45;;
62149;SDS011;48134;53.586;10.610;2023-05-10T07:42:46;6.13;;;3.53;;
62149;SDS011;48134;53.586;10.610;2023-05-10T07:45:19;6.45;;;3.45;;
62149;SDS011;48134;53.586;10.610;2023-05-10T07:47:47;8.55;;;3.88;;
62149;SDS011;48134;53.586;10.610;2023-05-10T07:50:19;10.10;;;3.70;;
62149;SDS011;48134;53.586;10.610;2023-05-10T07:52:53;8.68;;;3.70;;
62149;SDS011;48134;53.586;10.610;2023-05-10T07:55:20;6.35;;;3.50;;
62149;SDS011;48134;53.586;10.610;2023-05-10T07:57:54;6.72;;;3.53;;
62149;SDS011;48134;53.586;10.610;2023-05-10T08:00:22;8.68;;;3.28;;
62149;SDS011;48134;53.586;10.610;2023-05-10T08:02:55;6.57;;;3.83;;
62149;SDS011;48134;53.586;10.610;2023-05-10T08:05:28;7.03;;;3.67;;
62149;SDS011;48134;53.586;10.610;2023-05-10T08:07:56;9.60;;;3.90;;
62149;SDS011;48134;53.586;10.610;2023-05-10T08:10:28;7.60;;;3.58;;
62149;SDS011;48134;53.586;10.610;2023-05-10T08:12:57;6.70;;;3.25;;
62149;SDS011;48134;53.586;10.610;2023-05-10T08:15:25;7.13;;;3.83;;
62149;SDS011;48134;53.586;10.610;2023-05-10T08:17:53;8.45;;;3.90;;
62149;SDS011;48134;53.586;10.610;2023-05-10T08:20:26;6.75;;;3.72;;
62149;SDS011;48134;53.586;10.610;2023-05-10T08:22:54;8.35;;;3.67;;
62149;SDS011;48134;53.586;10.610;2023-05-10T08:25:27;5.85;;;3.53;;
62149;SDS011;48134;53.586;10.610;2023-05-10T08:27:54;6.82;;;3.70;;
62149;SDS011;48134;53.586;10.610;2023-05-10T08:30:28;6.43;;;3.50;;
62149;SDS011;48134;53.586;10.610;2023-05-10T08:32:56;9.38;;;4.10;;
62149;SDS011;48134;53.586;10.610;2023-05-10T08:35:29;6.55;;;3.78;;
62149;SDS011;48134;53.586;10.610;2023-05-10T08:38:02;7.10;;;3.50;;
62149;SDS011;48134;53.586;10.610;2023-05-10T08:40:30;9.52;;;3.90;;
62149;SDS011;48134;53.586;10.610;2023-05-10T08:43:04;7.45;;;3.90;;
62149;SDS011;48134;53.586;10.610;2023-05-10T08:45:39;6.68;;;3.38;;
62149;SDS011;48134;53.586;10.610;2023-05-10T08:48:07;7.93;;;3.30;;
62149;SDS011;48134;53.586;10.610;2023-05-10T08:50:37;5.55;;;3.22;;
62149;SDS011;48134;53.586;10.610;2023-05-10T08:53:05;8.82;;;3.75;;
62149;SDS011;48134;53.586;10.610;2023-05-10T08:55:38;5.75;;;3.38;;
62149;SDS011;48134;53.586;10.610;2023-05-10T08:58:08;6.85;;;3.63;;
62149;SDS011;48134;53.586;10.610;2023-05-10T09:00:42;7.40;;;2.95;;
62149;SDS011;48134;53.586;10.610;2023-05-10T09:03:10;6.97;;;3.70;;
62149;SDS011;48134;53.586;10.610;2023-05-10T09:05:43;5.25;;;3.08;;
62149;SDS011;48134;53.586;10.610;2023-05-10T09:08:11;6.97;;;3.60;;
62149;SDS011;48134;53.586;10.610;2023-05-10T09:10:39;10.48;;;4.10;;
62149;SDS011;48134;53.586;10.610;2023-05-10T09:13:10;6.68;;;3.08;;
62149;SDS011;48134;53.586;10.610;2023-05-10T09:15:38;9.85;;;3.40;;
62149;SDS011;48134;53.586;10.610;2023-05-10T09:18:07;6.70;;;3.80;;
62149;SDS011;48134;53.586;10.610;2023-05-10T09:20:40;8.00;;;3.35;;
62149;SDS011;48134;53.586;10.610;2023-05-10T09:23:08;7.22;;;3.70;;
62149;SDS011;48134;53.586;10.610;2023-05-10T09:25:36;7.38;;;3.60;;
62149;SDS011;48134;53.586;10.610;2023-05-10T09:28:06;6.88;;;3.50;;
62149;SDS011;48134;53.586;10.610;2023-05-10T09:30:38;7.43;;;3.88;;
62149;SDS011;48134;53.586;10.610;2023-05-10T09:33:13;7.20;;;3.80;;
62149;SDS011;48134;53.586;10.610;2023-05-10T09:35:46;8.07;;;3.88;;
62149;SDS011;48134;53.586;10.610;2023-05-10T09:38:19;7.72;;;3.58;;
62149;SDS011;48134;53.586;10.610;2023-05-10T09:40:50;6.15;;;3.65;;
62149;SDS011;48134;53.586;10.610;2023-05-10T09:43:20;7.15;;;3.45;;
62149;SDS011;48134;53.586;10.610;2023-05-10T09:45:53;6.40;;;3.58;;
62149;SDS011;48134;53.586;10.610;2023-05-10T09:48:27;7.50;;;3.67;;
62149;SDS011;48134;53.586;10.610;2023-05-10T09:50:58;6.85;;;3.70;;
62149;SDS011;48134;53.586;10.610;2023-05-10T09:53:27;7.18;;;3.90;;
62149;SDS011;48134;53.586;10.610;2023-05-10T09:55:54;7.57;;;3.63;;
62149;SDS011;48134;53.586;10.610;2023-05-10T09:58:22;7.15;;;3.75;;
62149;SDS011;48134;53.586;10.610;2023-05-10T10:00:50;6.60;;;3.80;;
62149;SDS011;48134;53.586;10.610;2023-05-10T10:03:23;6.65;;;3.55;;
62149;SDS011;48134;53.586;10.610;2023-05-10T10:05:53;8.43;;;3.72;;
62149;SDS011;48134;53.586;10.610;2023-05-10T10:08:22;9.27;;;3.92;;
62149;SDS011;48134;53.586;10.610;2023-05-10T10:10:50;9.38;;;3.92;;
62149;SDS011;48134;53.586;10.610;2023-05-10T10:13:17;9.07;;;3.88;;
62149;SDS011;48134;53.586;10.610;2023-05-10T10:15:45;5.28;;;3.10;;
62149;SDS011;48134;53.586;10.610;2023-05-10T10:18:17;9.43;;;3.75;;
62149;SDS011;48134;53.586;10.610;2023-05-10T10:20:45;8.55;;;3.95;;
62149;SDS011;48134;53.586;10.610;2023-05-10T10:23:19;6.95;;;3.80;;
62149;SDS011;48134;53.586;10.610;2023-05-10T10:25:47;12.90;;;3.92;;
62149;SDS011;48134;53.586;10.610;2023-05-10T10:28:23;7.30;;;4.05;;
62149;SDS011;48134;53.586;10.610;2023-05-10T10:30:56;7.10;;;4.03;;
62149;SDS011;48134;53.586;10.610;2023-05-10T10:33:30;5.90;;;3.60;;
62149;SDS011;48134;53.586;10.610;2023-05-10T10:36:06;8.70;;;3.90;;
62149;SDS011;48134;53.586;10.610;2023-05-10T10:41:32;8.48;;;3.97;;
62149;SDS011;48134;53.586;10.610;2023-05-10T10:49:43;8.50;;;3.80;;
62149;SDS011;48134;53.586;10.610;2023-05-10T10:52:21;8.20;;;3.83;;
62149;SDS011;48134;53.586;10.610;2023-05-10T10:54:50;7.35;;;3.80;;
62149;SDS011;48134;53.586;10.610;2023-05-10T10:57:25;7.47;;;3.58;;
62149;SDS011;48134;53.586;10.610;2023-05-10T11:00:17;6.97;;;3.80;;
62149;SDS011;48134;53.586;10.610;2023-05-10T11:05:34;7.07;;;3.65;;
62149;SDS011;48134;53.586;10.610;2023-05-10T11:08:06;8.95;;;3.80;;
62149;SDS011;48134;53.586;10.610;2023-05-10T11:10:34;7.60;;;3.40;;
62149;SDS011;48134;53.586;10.610;2023-05-10T11:13:08;7.13;;;3.60;;
62149;SDS011;48134;53.586;10.610;2023-05-10T11:15:47;6.60;;;3.70;;
62149;SDS011;48134;53.586;10.610;2023-05-10T11:18:16;5.90;;;3.80;;
62149;SDS011;48134;53.586;10.610;2023-05-10T11:20:54;7.65;;;4.38;;
62149;SDS011;48134;53.586;10.610;2023-05-10T11:23:30;6.82;;;3.70;;
62149;SDS011;48134;53.586;10.610;2023-05-10T11:26:03;6.80;;;3.75;;
62149;SDS011;48134;53.586;10.610;2023-05-10T11:28:42;7.80;;;4.10;;
62149;SDS011;48134;53.586;10.610;2023-05-10T11:31:16;9.40;;;4.07;;
62149;SDS011;48134;53.586;10.610;2023-05-10T11:33:44;10.38;;;4.40;;
62149;SDS011;48134;53.586;10.610;2023-05-10T11:36:13;9.48;;;4.75;;
62149;SDS011;48134;53.586;10.610;2023-05-10T11:38:41;7.78;;;4.57;;
62149;SDS011;48134;53.586;10.610;2023-05-10T11:41:09;7.90;;;4.68;;
62149;SDS011;48134;53.586;10.610;2023-05-10T11:43:44;8.77;;;4.55;;
62149;SDS011;48134;53.586;10.610;2023-05-10T11:46:18;7.28;;;4.25;;
62149;SDS011;48134;53.586;10.610;2023-05-10T11:48:47;8.32;;;4.55;;
62149;SDS011;48134;53.586;10.610;2023-05-10T11:51:22;9.52;;;4.68;;
62149;SDS011;48134;53.586;10.610;2023-05-10T11:53:55;12.70;;;4.90;;
62149;SDS011;48134;53.586;10.610;2023-05-10T11:56:28;10.43;;;5.25;;
62149;SDS011;48134;53.586;10.610;2023-05-10T11:58:58;10.45;;;5.28;;
62149;SDS011;48134;53.586;10.610;2023-05-10T12:01:33;8.27;;;5.05;;
62149;SDS011;48134;53.586;10.610;2023-05-10T12:04:06;8.82;;;4.97;;
62149;SDS011;48134;53.586;10.610;2023-05-10T12:06:36;11.15;;;5.55;;
62149;SDS011;48134;53.586;10.610;2023-05-10T12:09:05;8.32;;;5.03;;
62149;SDS011;48134;53.586;10.610;2023-05-10T12:11:39;10.40;;;6.30;;
62149;SDS011;48134;53.586;10.610;2023-05-10T12:14:13;8.57;;;5.15;;
62149;SDS011;48134;53.586;10.610;2023-05-10T12:16:42;8.57;;;5.03;;
62149;SDS011;48134;53.586;10.610;2023-05-10T12:19:10;8.90;;;5.78;;
62149;SDS011;48134;53.586;10.610;2023-05-10T12:21:38;11.68;;;6.18;;
62149;SDS011;48134;53.586;10.610;2023-05-10T12:24:12;11.80;;;5.72;;
